Time,TemperatureF,DewpointF,PressureIn,WindDirection,WindDirectionDegrees,WindSpeedMPH,WindSpeedGustMPH,Humidity,HourlyPrecipIn,Conditions,Clouds,dailyrainin,SoftwareType,DateUTC
2013-01-04 00:04:00,-14.0,-19.0,31.27,WNW,290,0.0,1.0,77,0.00,,,0.00,weatherlink.com 1.10,2013-01-04 07:04:00,
2013-01-04 00:19:00,-15.2,-20.0,31.27,NNE,23,0.0,1.0,79,0.00,,,0.00,weatherlink.com 1.10,2013-01-04 07:19:00,
2013-01-04 00:34:00,-16.2,-21.0,31.27,WNW,290,0.0,1.0,79,0.00,,,0.00,weatherlink.com 1.10,2013-01-04 07:34:00,
2013-01-04 00:49:00,-14.5,-20.0,31.28,NW,308,1.0,1.0,77,0.00,,,0.00,weatherlink.com 1.10,2013-01-04 07:49:00,
2013-01-04 01:05:00,-14.3,-20.0,31.28,NNW,343,2.0,2.0,74,0.00,,,0.00,weatherlink.com 1.10,2013-01-04 08:05:00,
2013-01-04 01:20:00,-17.0,-23.0,31.27,WNW,294,0.0,2.0,73,0.00,,,0.00,weatherlink.com 1.10,2013-01-04 08:20:00,
2013-01-04 01:35:00,-16.8,-22.0,31.27,NW,309,1.0,2.0,78,0.00,,,0.00,weatherlink.com 1.10,2013-01-04 08:35:00,
2013-01-04 01:50:00,-16.0,-21.0,31.28,NNW,347,0.0,1.0,76,0.00,,,0.00,weatherlink.com 1.10,2013-01-04 08:50:00,
2013-01-04 02:05:00,-16.3,-21.0,31.28,WNW,297,0.0,1.0,78,0.00,,,0.00,weatherlink.com 1.10,2013-01-04 09:05:00,
2013-01-04 02:20:00,-17.2,-23.0,31.28,WNW,297,0.0,1.0,76,0.00,,,0.00,weatherlink.com 1.10,2013-01-04 09:20:00,
2013-01-04 02:35:00,-16.9,-22.0,31.28,NW,316,0.0,1.0,76,0.00,,,0.00,weatherlink.com 1.10,2013-01-04 09:35:00,
2013-01-04 02:50:00,-17.2,-22.0,31.29,NW,317,0.0,0.0,79,0.00,,,0.00,weatherlink.com 1.10,2013-01-04 09:50:00,
2013-01-04 03:05:00,-17.1,-22.0,31.29,NW,305,1.0,2.0,78,0.00,,,0.00,weatherlink.com 1.10,2013-01-04 10:05:00,
2013-01-04 03:20:00,-18.7,-24.0,31.29,NW,316,1.0,1.0,78,0.00,,,0.00,weatherlink.com 1.10,2013-01-04 10:20:00,
2013-01-04 03:35:00,-16.8,-22.0,31.29,North,358,0.0,1.0,78,0.00,,,0.00,weatherlink.com 1.10,2013-01-04 10:35:00,
2013-01-04 03:50:00,-18.0,-23.0,31.29,WNW,287,1.0,2.0,77,0.00,,,0.00,weatherlink.com 1.10,2013-01-04 10:50:00,
2013-01-04 04:05:00,-18.7,-23.0,31.29,NW,308,1.0,1.0,79,0.00,,,0.00,weatherlink.com 1.10,2013-01-04 11:05:00,
2013-01-04 04:21:00,-18.9,-24.0,31.29,NW,312,1.0,4.0,78,0.00,,,0.00,weatherlink.com 1.10,2013-01-04 11:21:00,
2013-01-04 04:36:00,-17.6,-22.0,31.29,NNW,330,0.0,1.0,79,0.00,,,0.00,weatherlink.com 1.10,2013-01-04 11:36:00,
2013-01-04 04:51:00,-17.6,-22.0,31.29,West,281,0.0,1.0,78,0.00,,,0.00,weatherlink.com 1.10,2013-01-04 11:51:00,
2013-01-04 05:06:00,-18.1,-23.0,31.29,NW,311,0.0,1.0,78,0.00,,,0.00,weatherlink.com 1.10,2013-01-04 12:06:00,
2013-01-04 05:21:00,-18.5,-23.0,31.30,NW,314,1.0,1.0,80,0.00,,,0.00,weatherlink.com 1.10,2013-01-04 12:21:00,
2013-01-04 05:36:00,-17.4,-22.0,31.30,WNW,302,0.0,1.0,78,0.00,,,0.00,weatherlink.com 1.10,2013-01-04 12:36:00,
2013-01-04 05:51:00,-19.6,-25.0,31.30,WNW,297,0.0,1.0,77,0.00,,,0.00,weatherlink.com 1.10,2013-01-04 12:51:00,
2013-01-04 06:06:00,-19.3,-24.0,31.30,North,11,0.0,2.0,79,0.00,,,0.00,weatherlink.com 1.10,2013-01-04 13:06:00,
2013-01-04 06:21:00,-20.3,-26.0,31.30,WNW,284,0.0,1.0,76,0.00,,,0.00,weatherlink.com 1.10,2013-01-04 13:21:00,
2013-01-04 06:36:00,-19.4,-24.0,31.31,WNW,290,0.0,0.0,80,0.00,,,0.00,weatherlink.com 1.10,2013-01-04 13:36:00,
2013-01-04 06:51:00,-17.9,-22.0,31.31,WNW,294,0.0,0.0,80,0.00,,,0.00,weatherlink.com 1.10,2013-01-04 13:51:00,
2013-01-04 07:06:00,-18.5,-23.0,31.32,NNW,339,0.0,1.0,78,0.00,,,0.00,weatherlink.com 1.10,2013-01-04 14:06:00,
2013-01-04 07:21:00,-19.7,-25.0,31.32,NW,310,0.0,1.0,77,0.00,,,0.00,weatherlink.com 1.10,2013-01-04 14:21:00,
2013-01-04 07:36:00,-19.8,-25.0,31.32,West,276,0.0,0.0,78,0.00,,,0.00,weatherlink.com 1.10,2013-01-04 14:36:00,
2013-01-04 07:52:00,-19.4,-24.0,31.32,NW,305,0.0,1.0,79,0.00,,,0.00,weatherlink.com 1.10,2013-01-04 14:52:00,
2013-01-04 08:07:00,-18.2,-24.0,31.33,NW,311,0.0,1.0,76,0.00,,,0.00,weatherlink.com 1.10,2013-01-04 15:07:00,
2013-01-04 08:22:00,-15.6,-20.0,31.32,NW,307,0.0,0.0,79,0.00,,,0.00,weatherlink.com 1.10,2013-01-04 15:22:00,
2013-01-04 08:37:00,-13.0,-18.0,31.32,NW,307,0.0,0.0,77,0.00,,,0.00,weatherlink.com 1.10,2013-01-04 15:37:00,
2013-01-04 08:52:00,-13.4,-19.0,31.31,NNW,328,2.0,2.0,76,0.00,,,0.00,weatherlink.com 1.10,2013-01-04 15:52:00,
2013-01-04 09:07:00,-11.9,-17.0,31.31,NW,305,1.0,2.0,76,0.00,,,0.00,weatherlink.com 1.10,2013-01-04 16:07:00,
2013-01-04 09:22:00,-10.0,-16.0,31.30,NW,305,0.0,2.0,75,0.00,,,0.00,weatherlink.com 1.10,2013-01-04 16:22:00,
2013-01-04 09:37:00,-7.6,-14.0,31.30,NW,308,1.0,2.0,72,0.00,,,0.00,weatherlink.com 1.10,2013-01-04 16:37:00,
2013-01-04 09:52:00,-5.5,-13.0,31.29,NW,304,0.0,1.0,70,0.00,,,0.00,weatherlink.com 1.10,2013-01-04 16:52:00,
2013-01-04 10:07:00,-1.7,-11.0,31.28,NW,304,0.0,0.0,65,0.00,,,0.00,weatherlink.com 1.10,2013-01-04 17:07:00,
2013-01-04 10:22:00,1.0,-10.0,31.26,NW,305,0.0,0.0,61,0.00,,,0.00,weatherlink.com 1.10,2013-01-04 17:22:00,
2013-01-04 10:37:00,2.2,-11.0,31.24,SE,137,1.0,2.0,53,0.00,,,0.00,weatherlink.com 1.10,2013-01-04 17:37:00,
2013-01-04 10:52:00,-0.7,-12.0,31.22,SE,129,0.0,1.0,60,0.00,,,0.00,weatherlink.com 1.10,2013-01-04 17:52:00,
2013-01-04 11:08:00,1.7,-10.0,31.20,SE,128,0.0,0.0,59,0.00,,,0.00,weatherlink.com 1.10,2013-01-04 18:08:00,
2013-01-04 11:23:00,5.6,-7.0,31.18,SE,128,0.0,0.0,55,0.00,,,0.00,weatherlink.com 1.10,2013-01-04 18:23:00,
2013-01-04 11:38:00,11.1,-4.0,31.15,SE,128,0.0,0.0,50,0.00,,,0.00,weatherlink.com 1.10,2013-01-04 18:38:00,
2013-01-04 11:53:00,8.3,-6.0,31.13,East,90,0.0,2.0,53,0.00,,,0.00,weatherlink.com 1.10,2013-01-04 18:53:00,
2013-01-04 12:08:00,11.4,-4.0,31.11,East,90,0.0,0.0,51,0.00,,,0.00,weatherlink.com 1.10,2013-01-04 19:08:00,
2013-01-04 12:23:00,13.4,-4.0,31.09,East,89,0.0,0.0,47,0.00,,,0.00,weatherlink.com 1.10,2013-01-04 19:23:00,
2013-01-04 12:38:00,12.0,-4.0,31.07,WNW,300,2.0,2.0,49,0.00,,,0.00,weatherlink.com 1.10,2013-01-04 19:38:00,
2013-01-04 12:53:00,13.2,-3.0,31.05,NW,307,0.0,1.0,48,0.00,,,0.00,weatherlink.com 1.10,2013-01-04 19:53:00,
2013-01-04 13:08:00,14.4,-4.0,31.03,NNW,327,0.0,0.0,44,0.00,,,0.00,weatherlink.com 1.10,2013-01-04 20:08:00,
2013-01-04 13:23:00,13.2,-1.0,31.01,SE,125,5.0,5.0,53,0.00,,,0.00,weatherlink.com 1.10,2013-01-04 20:23:00,
2013-01-04 13:38:00,10.1,-2.0,31.00,SSE,150,2.0,3.0,58,0.00,,,0.00,weatherlink.com 1.10,2013-01-04 20:38:00,
2013-01-04 13:54:00,11.5,-2.0,30.98,ESE,108,2.0,3.0,56,0.00,,,0.00,weatherlink.com 1.10,2013-01-04 20:54:00,
2013-01-04 14:09:00,12.8,0.0,30.97,SE,142,0.0,2.0,56,0.00,,,0.00,weatherlink.com 1.10,2013-01-04 21:09:00,
2013-01-04 14:24:00,15.4,0.0,30.96,SE,142,0.0,0.0,50,0.00,,,0.00,weatherlink.com 1.10,2013-01-04 21:24:00,
2013-01-04 14:39:00,15.3,-1.0,30.95,East,98,0.0,0.0,49,0.00,,,0.00,weatherlink.com 1.10,2013-01-04 21:39:00,
2013-01-04 14:54:00,18.3,-2.0,30.94,East,98,0.0,0.0,40,0.00,,,0.00,weatherlink.com 1.10,2013-01-04 21:54:00,
2013-01-04 15:09:00,21.6,-1.0,30.94,ESE,111,0.0,0.0,38,0.00,,,0.00,weatherlink.com 1.10,2013-01-04 22:09:00,
2013-01-04 15:24:00,13.1,-4.0,30.93,SE,126,0.0,0.0,47,0.00,,,0.00,weatherlink.com 1.10,2013-01-04 22:24:00,
2013-01-04 15:39:00,13.2,-2.0,30.93,SSE,151,0.0,0.0,52,0.00,,,0.00,weatherlink.com 1.10,2013-01-04 22:39:00,
2013-01-04 15:54:00,16.4,-2.0,30.92,SSE,150,0.0,0.0,44,0.00,,,0.00,weatherlink.com 1.10,2013-01-04 22:54:00,
2013-01-04 16:09:00,11.4,-4.0,30.92,SSW,212,0.0,0.0,51,0.00,,,0.00,weatherlink.com 1.10,2013-01-04 23:09:00,
2013-01-04 16:24:00,8.5,-4.0,30.92,NE,50,0.0,0.0,57,0.00,,,0.00,weatherlink.com 1.10,2013-01-04 23:24:00,
2013-01-04 16:39:00,6.7,-3.0,30.92,NW,311,0.0,0.0,64,0.00,,,0.00,weatherlink.com 1.10,2013-01-04 23:39:00,
2013-01-04 16:55:00,5.5,-4.0,30.93,NNE,26,0.0,0.0,64,0.00,,,0.00,weatherlink.com 1.10,2013-01-04 23:55:00,
2013-01-04 17:10:00,5.2,-3.0,30.93,North,358,0.0,0.0,69,0.00,,,0.00,weatherlink.com 1.10,2013-01-05 00:10:00,
2013-01-04 17:25:00,2.9,-5.0,30.93,NNE,17,0.0,0.0,69,0.00,,,0.00,weatherlink.com 1.10,2013-01-05 00:25:00,
2013-01-04 17:40:00,2.7,-5.0,30.93,North,9,0.0,0.0,70,0.00,,,0.00,weatherlink.com 1.10,2013-01-05 00:40:00,
2013-01-04 17:55:00,0.9,-6.0,30.93,NW,321,0.0,1.0,72,0.00,,,0.00,weatherlink.com 1.10,2013-01-05 00:55:00,
2013-01-04 18:25:00,1.5,-6.0,30.94,SSW,208,3.0,3.0,71,0.00,,,0.00,weatherlink.com 1.10,2013-01-05 01:25:00,
2013-01-04 18:40:00,0.6,-6.0,30.94,NNE,32,0.0,2.0,72,0.00,,,0.00,weatherlink.com 1.10,2013-01-05 01:40:00,
2013-01-04 18:55:00,1.7,-4.0,30.94,NW,315,2.0,2.0,77,0.00,,,0.00,weatherlink.com 1.10,2013-01-05 01:55:00,
2013-01-04 19:10:00,2.9,-5.0,30.94,NW,311,3.0,5.0,71,0.00,,,0.00,weatherlink.com 1.10,2013-01-05 02:10:00,
2013-01-04 19:25:00,-0.4,-6.0,30.94,NW,311,3.0,3.0,76,0.00,,,0.00,weatherlink.com 1.10,2013-01-05 02:25:00,
2013-01-04 19:40:00,-0.4,-6.0,30.94,NW,309,0.0,5.0,77,0.00,,,0.00,weatherlink.com 1.10,2013-01-05 02:40:00,
2013-01-04 19:56:00,-1.5,-8.0,30.95,NE,36,0.0,2.0,75,0.00,,,0.00,weatherlink.com 1.10,2013-01-05 02:56:00,
2013-01-04 20:11:00,-3.6,-9.0,30.95,NNW,336,0.0,4.0,79,0.00,,,0.00,weatherlink.com 1.10,2013-01-05 03:11:00,
2013-01-04 20:26:00,-1.1,-5.0,30.95,NNW,343,0.0,1.0,83,0.00,,,0.00,weatherlink.com 1.10,2013-01-05 03:26:00,
2013-01-04 20:41:00,-0.6,-5.0,30.96,North,9,0.0,1.0,82,0.00,,,0.00,weatherlink.com 1.10,2013-01-05 03:41:00,
2013-01-04 20:56:00,0.2,-6.0,30.96,NW,312,0.0,4.0,76,0.00,,,0.00,weatherlink.com 1.10,2013-01-05 03:56:00,
2013-01-04 21:11:00,0.4,-6.0,30.97,WNW,287,0.0,4.0,75,0.00,,,0.00,weatherlink.com 1.10,2013-01-05 04:11:00,
2013-01-04 21:26:00,2.1,-2.0,30.97,NNE,19,1.0,2.0,82,0.00,,,0.00,weatherlink.com 1.10,2013-01-05 04:26:00,
2013-01-04 21:41:00,3.7,-4.0,30.97,West,276,0.0,3.0,69,0.00,,,0.00,weatherlink.com 1.10,2013-01-05 04:41:00,
2013-01-04 21:56:00,3.4,-3.0,30.97,NW,322,0.0,3.0,74,0.00,,,0.00,weatherlink.com 1.10,2013-01-05 04:56:00,
2013-01-04 22:12:00,4.8,-2.0,30.98,North,4,0.0,3.0,73,0.00,,,0.00,weatherlink.com 1.10,2013-01-05 05:12:00,
2013-01-04 22:26:00,2.7,-4.0,30.97,NW,311,0.0,2.0,75,0.00,,,0.00,weatherlink.com 1.10,2013-01-05 05:26:00,
2013-01-04 22:42:00,2.4,-3.0,30.97,North,1,0.0,2.0,79,0.00,,,0.00,weatherlink.com 1.10,2013-01-05 05:42:00,
2013-01-04 22:57:00,3.7,-3.0,30.97,WNW,300,1.0,3.0,74,0.00,,,0.00,weatherlink.com 1.10,2013-01-05 05:57:00,
2013-01-04 23:12:00,2.1,-3.0,30.97,NNE,20,2.0,4.0,80,0.00,,,0.00,weatherlink.com 1.10,2013-01-05 06:12:00,
2013-01-04 23:27:00,2.0,-5.0,30.97,NW,316,2.0,4.0,71,0.00,,,0.00,weatherlink.com 1.10,2013-01-05 06:27:00,
2013-01-04 23:42:00,2.8,-4.0,30.97,NNW,348,0.0,4.0,72,0.00,,,0.00,weatherlink.com 1.10,2013-01-05 06:42:00,
2013-01-04 23:57:00,0.8,-5.0,30.97,NNW,334,0.0,2.0,77,0.00,,,0.00,weatherlink.com 1.10,2013-01-05 06:57:00,